createdAt,value
2018-06-19T00:03:16.524Z,74.10
2018-06-19T00:08:46.453Z,74.20
2018-06-19T00:14:16.746Z,74.30
2018-06-19T00:19:51.025Z,74.50
2018-06-19T00:25:20.495Z,74.50
2018-06-19T00:30:50.058Z,74.70
2018-06-19T00:36:19.609Z,75.00
2018-06-19T00:41:48.969Z,75.20
2018-06-19T00:47:18.432Z,75.50
2018-06-19T00:52:47.965Z,75.70
2018-06-19T00:58:17.417Z,75.90
2018-06-19T01:03:46.923Z,76.00
2018-06-19T01:09:16.517Z,76.50
2018-06-19T01:14:46.092Z,76.50
2018-06-19T01:20:15.655Z,76.60
2018-06-19T01:25:45.222Z,76.80
2018-06-19T01:31:14.409Z,77.00
2018-06-19T01:36:43.599Z,77.10
2018-06-19T01:42:12.771Z,77.40
2018-06-19T01:47:41.972Z,78.20
2018-06-19T01:53:11.173Z,77.80
2018-06-19T01:58:40.496Z,78.00
2018-06-19T02:04:09.693Z,78.00
2018-06-19T02:09:39.026Z,78.30
2018-06-19T02:15:08.250Z,78.30
2018-06-19T02:20:37.551Z,78.50
2018-06-19T02:31:35.664Z,79.40
2018-06-19T02:37:04.868Z,78.90
2018-06-19T02:42:34.711Z,79.00
2018-06-19T02:48:04.309Z,79.10
2018-06-19T02:53:33.998Z,79.30
2018-06-19T02:59:03.665Z,79.40
2018-06-19T03:04:33.255Z,79.60
2018-06-19T03:10:02.862Z,79.50
2018-06-19T03:15:32.725Z,79.60
2018-06-19T03:21:02.369Z,79.80
2018-06-19T03:26:32.131Z,79.90
2018-06-19T03:32:01.325Z,79.80
2018-06-19T03:37:31.188Z,79.80
2018-06-19T03:43:01.196Z,79.80
2018-06-19T03:48:31.036Z,79.90
2018-06-19T03:54:01.279Z,80.40
2018-06-19T03:59:32.203Z,79.60
2018-06-19T04:10:31.686Z,79.40
2018-06-19T04:16:02.225Z,80.00
2018-06-19T04:21:32.149Z,79.10
2018-06-19T04:27:01.769Z,78.90
2018-06-19T04:32:31.407Z,78.90
2018-06-19T04:38:01.191Z,78.70
2018-06-19T04:43:31.181Z,78.50
2018-06-19T04:49:01.900Z,78.30
2018-06-19T04:54:31.738Z,78.80
2018-06-19T05:00:02.973Z,78.00
2018-06-19T05:05:34.672Z,77.90
2018-06-19T05:11:04.253Z,77.60
2018-06-19T05:16:34.172Z,77.10
2018-06-19T05:22:05.442Z,76.30
2018-06-19T05:27:34.731Z,75.50
2018-06-19T05:33:04.073Z,74.50
2018-06-19T05:38:34.212Z,74.00
2018-06-19T05:44:05.271Z,73.80
2018-06-19T05:49:35.186Z,73.30
2018-06-19T05:55:04.947Z,72.70
2018-06-19T06:00:34.548Z,72.10
2018-06-19T06:06:04.337Z,71.60
2018-06-19T06:11:34.027Z,71.10
2018-06-19T06:17:05.111Z,70.50
2018-06-19T06:22:34.827Z,69.70
2018-06-19T06:28:04.449Z,69.50
2018-06-19T06:33:33.639Z,68.50
2018-06-19T06:39:02.859Z,68.20
2018-06-19T06:44:32.039Z,68.20
2018-06-19T06:50:01.253Z,66.90
2018-06-19T06:55:30.440Z,66.40
2018-06-19T07:00:59.689Z,65.10
2018-06-19T07:06:28.907Z,64.10
2018-06-19T07:11:58.106Z,62.90
2018-06-19T07:17:27.302Z,63.00
2018-06-19T07:22:56.559Z,61.90
2018-06-19T07:28:25.738Z,61.60
2018-06-19T07:33:55.201Z,61.80
2018-06-19T07:39:24.416Z,61.30
2018-06-19T07:44:53.590Z,61.20
2018-06-19T07:50:22.810Z,60.40
2018-06-19T07:55:52.033Z,60.00
2018-06-19T08:01:21.874Z,59.60
2018-06-19T08:06:51.120Z,59.30
2018-06-19T08:28:48.100Z,58.20
2018-06-19T08:34:18.054Z,58.90
2018-06-19T08:39:48.038Z,57.70
2018-06-19T08:45:18.183Z,57.20
2018-06-19T08:50:48.221Z,57.90
2018-06-19T08:56:18.479Z,56.10
2018-06-19T09:01:48.867Z,56.80
2018-06-19T09:07:19.693Z,55.80
2018-06-19T09:12:49.469Z,56.60
2018-06-19T09:18:18.984Z,56.40
2018-06-19T09:23:50.896Z,55.30
2018-06-19T09:29:20.607Z,55.40
2018-06-19T09:34:50.063Z,55.10
2018-06-19T09:40:19.237Z,53.90
2018-06-19T09:45:49.192Z,53.50
2018-06-19T09:51:18.810Z,53.80
2018-06-19T09:56:48.874Z,54.20
2018-06-19T10:02:19.012Z,52.40
2018-06-19T10:07:49.289Z,53.10
2018-06-19T10:13:20.012Z,55.20
2018-06-19T10:18:50.128Z,53.60
2018-06-19T10:24:20.348Z,54.40
2018-06-19T10:29:50.599Z,53.90
2018-06-19T10:35:19.978Z,53.50
2018-06-19T10:40:49.559Z,54.40
2018-06-19T10:46:19.390Z,54.20
2018-06-19T10:51:48.908Z,55.30
2018-06-19T10:57:18.340Z,54.40
2018-06-19T11:02:48.879Z,54.10
2018-06-19T11:08:18.865Z,53.70
2018-06-19T11:13:48.120Z,53.00
2018-06-19T11:19:17.694Z,52.40
2018-06-19T11:24:46.971Z,52.30
2018-06-19T11:30:16.286Z,51.90
2018-06-19T11:35:46.800Z,52.20
2018-06-19T11:46:45.887Z,52.60
2018-06-19T11:52:15.712Z,52.50
2018-06-19T11:57:45.405Z,54.30
2018-06-19T12:03:14.953Z,53.50
2018-06-19T12:08:44.331Z,54.10
2018-06-19T12:14:13.816Z,53.30
2018-06-19T12:19:45.256Z,53.10
2018-06-19T12:25:14.797Z,53.30
2018-06-19T12:30:44.053Z,53.40
2018-06-19T12:36:13.243Z,54.20
2018-06-19T12:41:46.333Z,53.80
2018-06-19T12:47:16.301Z,52.70
2018-06-19T12:53:02.444Z,53.70
2018-06-19T12:58:31.656Z,52.10
2018-06-19T13:04:18.048Z,53.50
2018-06-19T13:09:47.814Z,52.50
2018-06-19T13:15:17.516Z,52.50
2018-06-19T13:20:50.793Z,51.80
2018-06-19T13:26:20.447Z,51.70
2018-06-19T13:31:50.426Z,51.10
2018-06-19T13:37:19.621Z,50.80
2018-06-19T13:45:12.255Z,50.50
2018-06-19T13:50:43.399Z,50.70
2018-06-19T13:57:41.935Z,51.10
2018-06-19T14:03:12.444Z,51.50
2018-06-19T14:09:13.405Z,50.70
2018-06-19T14:14:43.855Z,50.60
2018-06-19T14:20:15.322Z,51.50
2018-06-19T14:25:46.285Z,51.20
2018-06-19T14:31:15.626Z,51.50
2018-06-19T14:36:44.793Z,50.60
2018-06-19T14:42:18.038Z,50.10
2018-06-19T14:47:47.610Z,50.60
2018-06-19T14:53:17.728Z,50.20
2018-06-19T14:58:47.826Z,49.60
2018-06-19T15:04:17.628Z,45.80
2018-06-19T15:09:48.573Z,47.10
2018-06-19T15:15:18.435Z,47.10
2018-06-19T15:20:48.303Z,41.30
2018-06-19T15:26:18.787Z,43.60
2018-06-19T15:31:47.990Z,46.70
2018-06-19T15:37:17.170Z,47.60
2018-06-19T15:42:46.893Z,48.60
2018-06-19T15:48:18.205Z,48.50
2018-06-19T15:53:48.151Z,49.30
2018-06-19T15:59:21.356Z,49.20
2018-06-19T16:04:51.574Z,49.50
2018-06-19T16:10:21.290Z,48.50
2018-06-19T16:15:51.012Z,48.80
2018-06-19T16:21:21.086Z,49.70
2018-06-19T16:26:52.412Z,50.30
2018-06-19T16:32:21.621Z,50.00
2018-06-19T16:37:50.795Z,51.00
2018-06-19T16:43:21.028Z,51.30
2018-06-19T16:48:51.311Z,52.20
2018-06-19T16:54:21.168Z,51.70
2018-06-19T16:59:50.978Z,51.90
2018-06-19T17:05:20.417Z,52.60
2018-06-19T17:10:50.792Z,52.20
2018-06-19T17:16:20.683Z,52.30
2018-06-19T17:21:50.686Z,52.50
2018-06-19T17:27:20.898Z,52.50
2018-06-19T17:32:50.084Z,52.60
2018-06-19T17:38:19.949Z,52.70
2018-06-19T17:43:50.335Z,53.00
2018-06-19T17:49:20.516Z,53.10
2018-06-19T17:54:50.959Z,53.90
2018-06-19T18:00:20.830Z,54.20
2018-06-19T18:05:50.761Z,54.40
2018-06-19T18:11:22.202Z,54.50
2018-06-19T18:16:51.898Z,54.80
2018-06-19T18:22:21.986Z,54.90
2018-06-19T18:33:44.482Z,55.10
2018-06-19T18:39:15.355Z,55.40
2018-06-19T18:44:45.775Z,55.40
2018-06-19T18:50:21.436Z,55.80
2018-06-19T18:55:51.322Z,55.80
2018-06-19T19:01:21.261Z,56.30
2018-06-19T19:06:51.510Z,56.20
2018-06-19T19:12:21.888Z,56.60
2018-06-19T19:17:56.745Z,56.90
2018-06-19T19:23:25.996Z,57.70
2018-06-19T19:29:01.279Z,57.60
2018-06-19T19:34:30.498Z,58.70
2018-06-19T19:39:59.737Z,58.60
2018-06-19T19:45:28.946Z,58.90
2018-06-19T19:50:58.178Z,60.20
2018-06-19T19:56:32.647Z,59.80
2018-06-19T20:02:01.855Z,60.10
2018-06-19T20:07:31.102Z,59.90
2018-06-19T20:13:00.312Z,60.90
2018-06-19T20:18:29.548Z,61.00
2018-06-19T20:23:58.751Z,61.30
2018-06-19T20:29:28.034Z,61.40
2018-06-19T20:34:57.388Z,62.20
2018-06-19T20:40:26.620Z,62.50
2018-06-19T20:45:55.811Z,63.70
2018-06-19T20:51:24.999Z,63.40
2018-06-19T20:56:54.275Z,63.50
2018-06-19T21:02:23.451Z,64.00
2018-06-19T21:07:52.716Z,64.40
2018-06-19T21:13:21.934Z,64.90
2018-06-19T21:24:20.197Z,65.50
2018-06-19T21:29:49.458Z,66.10
2018-06-19T21:35:18.664Z,66.10
2018-06-19T21:40:48.029Z,66.40
2018-06-19T21:46:17.535Z,66.60
2018-06-19T21:51:47.043Z,67.00
2018-06-19T21:57:16.729Z,67.30
2018-06-19T22:02:46.387Z,67.60
2018-06-19T22:08:16.066Z,67.90
2018-06-19T22:13:46.179Z,68.40
2018-06-19T22:19:15.793Z,68.50
2018-06-19T22:24:45.867Z,68.60
2018-06-19T22:30:15.643Z,69.20
2018-06-19T22:35:45.539Z,69.50
2018-06-19T22:41:15.466Z,69.60
2018-06-19T22:46:45.869Z,69.90
2018-06-19T22:52:16.544Z,70.40
2018-06-19T22:57:46.248Z,70.60
2018-06-19T23:03:16.680Z,70.80
2018-06-19T23:08:49.695Z,71.20
2018-06-19T23:14:19.107Z,71.30
2018-06-19T23:19:49.101Z,71.40
2018-06-19T23:25:19.316Z,71.60
2018-06-19T23:30:48.820Z,71.80
2018-06-19T23:36:18.227Z,72.30
2018-06-19T23:41:48.204Z,72.50
2018-06-19T23:47:17.785Z,72.70
2018-06-19T23:52:48.457Z,72.80
2018-06-19T23:58:17.870Z,72.80
